Time;durP1;ratioP1;P1;durP2;ratioP2;P2;SDS_P1;SDS_P2;PMS_P1;PMS_P2;Temp;Humidity;BMP_temperature;BMP_pressure;BME280_temperature;BME280_humidity;BME280_pressure;Samples;Min_cycle;Max_cycle;Signal;HPM_P1;HPM_P2
2023/03/15 00:01:13;;;;;;;16.73;2.35;;;0.00;99.90;;;;;;5079108;28;20036;-63
2023/03/15 00:03:40;;;;;;;15.07;2.58;;;0.00;99.90;;;;;;5081000;28;20740;-64
2023/03/15 00:06:06;;;;;;;13.77;2.40;;;0.00;99.90;;;;;;5077088;28;20468;-62
2023/03/15 00:08:32;;;;;;;11.95;1.83;;;0.00;99.90;;;;;;5082329;28;20466;-64
2023/03/15 00:10:58;;;;;;;22.08;4.13;;;0.00;99.90;;;;;;5082299;28;20044;-64
2023/03/15 00:13:24;;;;;;;9.10;1.65;;;0.00;99.90;;;;;;5076562;28;20531;-63
2023/03/15 00:15:52;;;;;;;12.43;2.58;;;0.00;99.90;;;;;;5081207;28;20047;-65
2023/03/15 00:18:19;;;;;;;17.95;2.67;;;0.00;99.90;;;;;;5073797;28;20040;-65
2023/03/15 00:20:46;;;;;;;22.92;2.80;;;0.00;99.90;;;;;;5070721;28;20132;-65
2023/03/15 00:23:12;;;;;;;17.20;2.53;;;0.00;99.90;;;;;;5074111;28;20044;-63
2023/03/15 00:25:38;;;;;;;13.15;2.38;;;0.00;99.90;;;;;;5069743;28;20044;-65
2023/03/15 00:28:04;;;;;;;18.30;2.03;;;0.00;99.90;;;;;;5071517;28;20037;-63
2023/03/15 00:30:30;;;;;;;13.32;2.08;;;0.00;99.90;;;;;;5069510;28;20480;-62
2023/03/15 00:32:56;;;;;;;11.80;2.20;;;0.10;99.90;;;;;;5073654;28;20034;-61
2023/03/15 00:35:23;;;;;;;16.27;1.85;;;0.10;99.90;;;;;;5070311;28;20078;-61
2023/03/15 00:37:53;;;;;;;12.77;2.53;;;0.20;99.90;;;;;;5073317;28;20103;-64
2023/03/15 00:40:19;;;;;;;19.38;3.15;;;0.30;99.90;;;;;;5068067;28;20095;-64
2023/03/15 00:42:48;;;;;;;11.95;2.08;;;0.30;99.90;;;;;;5074486;28;20448;-65
2023/03/15 00:45:16;;;;;;;9.65;1.95;;;0.40;99.90;;;;;;5072351;28;20040;-62
2023/03/15 00:47:42;;;;;;;12.10;2.20;;;0.50;99.90;;;;;;5073712;28;20051;-65
2023/03/15 00:50:08;;;;;;;16.70;2.70;;;0.50;99.90;;;;;;5070069;28;20143;-64
2023/03/15 00:52:35;;;;;;;17.67;2.22;;;0.60;99.90;;;;;;5069265;28;20040;-64
2023/03/15 00:55:01;;;;;;;24.52;2.45;;;0.60;99.90;;;;;;5071682;28;20043;-65
2023/03/15 00:57:26;;;;;;;15.15;2.40;;;0.70;99.90;;;;;;5071412;28;20404;-65
2023/03/15 00:59:52;;;;;;;13.85;3.08;;;0.70;99.90;;;;;;5069443;28;20090;-65
2023/03/15 01:02:20;;;;;;;13.27;1.90;;;0.70;99.90;;;;;;5069831;28;20598;-64
2023/03/15 01:04:47;;;;;;;16.85;2.97;;;0.70;99.90;;;;;;5068355;28;20040;-64
2023/03/15 01:07:13;;;;;;;13.73;1.75;;;0.70;99.90;;;;;;5070377;28;20055;-65
2023/03/15 01:09:38;;;;;;;23.08;2.72;;;0.80;99.90;;;;;;5070914;28;20431;-65
2023/03/15 01:12:04;;;;;;;15.38;2.63;;;0.80;99.90;;;;;;5070856;28;20033;-64
2023/03/15 01:14:30;;;;;;;7.82;1.63;;;0.80;99.90;;;;;;5068817;28;20105;-65
2023/03/15 01:16:55;;;;;;;15.13;2.65;;;0.80;99.90;;;;;;5069691;28;20048;-65
2023/03/15 01:19:21;;;;;;;12.95;1.92;;;0.80;99.90;;;;;;5072500;28;20036;-65
2023/03/15 01:21:46;;;;;;;15.75;2.05;;;0.90;99.90;;;;;;5071039;28;20369;-65
2023/03/15 01:24:13;;;;;;;10.52;1.65;;;0.90;99.90;;;;;;5074676;28;20040;-65
2023/03/15 01:26:39;;;;;;;20.58;2.42;;;0.90;99.90;;;;;;5070998;28;20105;-64
2023/03/15 01:29:05;;;;;;;19.52;2.35;;;0.80;99.90;;;;;;5074532;28;20044;-63
2023/03/15 01:31:31;;;;;;;11.20;1.90;;;0.70;99.90;;;;;;5066985;28;20047;-64
2023/03/15 01:33:58;;;;;;;15.68;2.38;;;0.70;99.90;;;;;;5066770;28;20033;-65
2023/03/15 01:36:24;;;;;;;17.88;2.58;;;0.60;99.90;;;;;;5068848;28;20048;-64
2023/03/15 01:38:49;;;;;;;7.82;1.70;;;0.50;99.90;;;;;;5069496;28;20041;-64
2023/03/15 01:41:17;;;;;;;19.85;2.53;;;0.50;99.90;;;;;;5069221;28;20094;-65
2023/03/15 01:43:46;;;;;;;10.18;2.80;;;0.50;99.90;;;;;;5073696;28;20032;-64
2023/03/15 01:46:22;;;;;;;8.85;1.73;;;0.50;99.90;;;;;;5070268;28;20040;-65
2023/03/15 01:49:06;;;;;;;13.95;2.20;;;0.50;99.90;;;;;;5073179;28;20468;-64
2023/03/15 01:51:40;;;;;;;21.13;3.22;;;0.50;99.90;;;;;;5062986;28;20051;-64
2023/03/15 01:54:41;;;;;;;13.20;2.45;;;0.50;99.90;;;;;;5072410;28;20036;-65
2023/03/15 01:57:57;;;;;;;13.20;2.08;;;0.40;99.90;;;;;;5070166;28;20042;-65
2023/03/15 02:00:22;;;;;;;15.18;2.97;;;0.40;99.90;;;;;;5054976;28;20067;-65
2023/03/15 02:02:55;;;;;;;9.07;2.17;;;0.40;99.90;;;;;;5069164;28;20044;-64
2023/03/15 02:05:24;;;;;;;13.70;2.60;;;0.40;99.90;;;;;;5064886;28;20067;-64
2023/03/15 02:07:53;;;;;;;13.82;2.55;;;0.30;99.90;;;;;;5068283;28;20105;-64
2023/03/15 02:10:48;;;;;;;12.40;2.80;;;0.30;99.90;;;;;;5067336;28;20044;-64
2023/03/15 02:13:17;;;;;;;11.10;3.50;;;0.40;99.90;;;;;;5071778;28;20051;-62
2023/03/15 02:15:45;;;;;;;10.98;3.22;;;0.40;99.90;;;;;;5069074;28;20402;-64
2023/03/15 02:18:15;;;;;;;17.25;3.67;;;0.40;99.90;;;;;;5071544;28;20067;-64
2023/03/15 02:21:18;;;;;;;16.67;3.85;;;0.40;99.90;;;;;;5068789;28;20151;-63
2023/03/15 02:23:51;;;;;;;14.82;4.30;;;0.40;99.90;;;;;;5071210;28;20123;-61
2023/03/15 02:26:53;;;;;;;23.13;4.80;;;0.40;99.90;;;;;;5068256;28;20043;-63
2023/03/15 02:29:19;;;;;;;23.45;5.30;;;0.50;99.90;;;;;;5063573;28;20036;-60
2023/03/15 02:31:44;;;;;;;18.83;5.22;;;0.50;99.90;;;;;;5067709;28;20123;-63
2023/03/15 02:34:10;;;;;;;22.27;5.53;;;0.50;99.90;;;;;;5070310;28;20105;-64
2023/03/15 02:36:36;;;;;;;24.17;5.90;;;0.50;99.90;;;;;;5069184;28;20736;-62
2023/03/15 02:39:16;;;;;;;20.27;5.15;;;0.50;99.90;;;;;;5067868;28;20044;-64
2023/03/15 02:41:46;;;;;;;17.90;5.00;;;0.50;99.90;;;;;;5063994;28;20052;-64
2023/03/15 02:44:26;;;;;;;22.80;5.82;;;0.50;99.90;;;;;;5073776;28;20042;-64
2023/03/15 02:46:55;;;;;;;15.25;4.68;;;0.50;99.90;;;;;;5066370;28;20075;-63
2023/03/15 02:49:23;;;;;;;20.83;6.70;;;0.50;99.90;;;;;;5070123;28;20508;-64
2023/03/15 02:51:49;;;;;;;16.42;5.75;;;0.60;99.90;;;;;;5063578;28;20040;-62
2023/03/15 02:54:15;;;;;;;13.50;6.22;;;0.60;99.90;;;;;;5070153;28;20056;-64
2023/03/15 02:56:41;;;;;;;26.17;6.88;;;0.60;99.90;;;;;;5069082;28;20123;-64
2023/03/15 02:59:06;;;;;;;19.38;5.75;;;0.60;99.90;;;;;;5070473;28;20037;-63
2023/03/15 03:01:36;;;;;;;18.02;5.57;;;0.60;99.90;;;;;;5067451;28;20040;-63
2023/03/15 03:04:02;;;;;;;16.05;5.55;;;0.70;99.90;;;;;;5067151;28;20079;-62
2023/03/15 03:06:28;;;;;;;23.08;5.93;;;0.70;99.90;;;;;;5067496;28;20087;-64
2023/03/15 03:08:53;;;;;;;28.50;7.43;;;0.70;99.90;;;;;;5068815;28;20449;-65
2023/03/15 03:11:19;;;;;;;20.23;5.75;;;0.70;99.90;;;;;;5064992;28;20411;-61
2023/03/15 03:13:45;;;;;;;14.20;5.30;;;0.70;99.90;;;;;;5067708;28;20102;-61
2023/03/15 03:16:11;;;;;;;10.27;4.85;;;0.70;99.90;;;;;;5067390;28;20063;-61
2023/03/15 03:18:37;;;;;;;12.05;5.10;;;0.80;99.90;;;;;;5071233;28;20044;-62
2023/03/15 03:21:05;;;;;;;10.80;4.55;;;0.80;99.90;;;;;;5068108;28;20155;-61
2023/03/15 03:23:32;;;;;;;11.48;4.20;;;0.80;99.90;;;;;;5070535;28;20501;-63
2023/03/15 03:25:59;;;;;;;8.57;4.18;;;0.80;99.90;;;;;;5067163;28;20467;-64
2023/03/15 03:28:27;;;;;;;8.98;3.30;;;0.80;99.90;;;;;;5067929;28;20045;-63
2023/03/15 03:30:54;;;;;;;7.38;2.95;;;0.80;99.90;;;;;;5070088;28;20132;-64
2023/03/15 03:33:20;;;;;;;5.95;2.88;;;0.80;99.90;;;;;;5066593;28;20127;-64
2023/03/15 03:35:46;;;;;;;6.55;2.75;;;0.80;99.90;;;;;;5067567;28;20150;-64
2023/03/15 03:38:12;;;;;;;6.78;2.92;;;0.90;99.90;;;;;;5071381;28;20074;-64
2023/03/15 03:40:39;;;;;;;9.10;3.75;;;0.80;99.90;;;;;;5066862;28;20037;-63
2023/03/15 03:43:06;;;;;;;9.05;3.63;;;0.80;99.90;;;;;;5068013;28;20048;-63
2023/03/15 03:45:32;;;;;;;15.65;3.65;;;0.90;99.90;;;;;;5066292;28;20048;-64
2023/03/15 03:47:58;;;;;;;7.43;3.50;;;0.90;99.90;;;;;;5068019;28;20033;-63
2023/03/15 03:50:23;;;;;;;8.55;3.30;;;1.00;99.90;;;;;;5068066;28;20123;-64
2023/03/15 03:52:49;;;;;;;8.25;2.50;;;1.00;99.90;;;;;;5069691;28;20450;-65
2023/03/15 03:55:15;;;;;;;5.90;3.10;;;1.00;99.90;;;;;;5070258;28;20543;-64
2023/03/15 03:57:41;;;;;;;5.85;2.60;;;1.10;99.90;;;;;;5074691;28;20411;-63
2023/03/15 04:00:09;;;;;;;8.43;2.30;;;1.00;99.90;;;;;;5071442;28;20040;-60
2023/03/15 04:02:35;;;;;;;3.70;2.33;;;1.00;99.90;;;;;;5071227;28;20048;-63
2023/03/15 04:05:01;;;;;;;3.15;1.95;;;1.10;99.90;;;;;;5067715;28;20036;-64
2023/03/15 04:07:26;;;;;;;4.78;2.20;;;1.00;99.90;;;;;;5071684;28;20045;-64
2023/03/15 04:09:52;;;;;;;3.20;2.00;;;1.00;99.90;;;;;;5070416;28;20040;-63
2023/03/15 04:12:18;;;;;;;3.42;2.05;;;1.10;99.90;;;;;;5071985;28;20032;-62
2023/03/15 04:14:44;;;;;;;3.70;2.10;;;1.10;99.90;;;;;;5071856;28;20083;-63
2023/03/15 04:17:10;;;;;;;3.42;1.90;;;1.00;99.90;;;;;;5069909;28;20041;-63
2023/03/15 04:19:35;;;;;;;3.17;1.50;;;1.00;99.90;;;;;;5071252;28;20049;-63
2023/03/15 04:22:05;;;;;;;1.58;1.40;;;1.00;99.90;;;;;;5071181;28;20067;-63
2023/03/15 04:24:34;;;;;;;2.15;1.50;;;1.00;99.90;;;;;;5074417;28;20055;-63
2023/03/15 04:27:00;;;;;;;4.13;1.40;;;1.00;99.90;;;;;;5071086;28;20516;-64
2023/03/15 04:29:26;;;;;;;2.60;1.70;;;0.90;99.90;;;;;;5072247;28;20679;-65
2023/03/15 04:31:52;;;;;;;2.72;1.50;;;0.90;99.90;;;;;;5066510;28;20043;-63
2023/03/15 04:34:17;;;;;;;4.80;1.90;;;1.00;99.90;;;;;;5068694;28;20041;-63
2023/03/15 04:36:43;;;;;;;6.55;1.60;;;0.90;99.90;;;;;;5071047;28;20098;-64
2023/03/15 04:39:09;;;;;;;3.20;1.77;;;1.00;99.90;;;;;;5075576;28;20051;-61
2023/03/15 04:41:35;;;;;;;2.83;1.40;;;1.00;99.90;;;;;;5070352;28;20487;-62
2023/03/15 04:44:02;;;;;;;2.60;1.90;;;1.00;99.90;;;;;;5073120;28;20705;-61
2023/03/15 04:46:29;;;;;;;4.32;2.17;;;1.10;99.90;;;;;;5069831;28;20095;-63
2023/03/15 04:48:55;;;;;;;2.50;1.65;;;1.00;99.90;;;;;;5070309;28;20044;-62
2023/03/15 04:51:20;;;;;;;2.60;1.88;;;1.00;99.90;;;;;;5067861;28;20033;-64
2023/03/15 04:53:46;;;;;;;3.85;1.73;;;1.00;99.90;;;;;;5073948;28;20127;-64
2023/03/15 04:56:12;;;;;;;2.50;2.05;;;1.00;99.90;;;;;;5069990;28;20068;-63
2023/03/15 04:58:37;;;;;;;2.33;1.80;;;1.00;99.90;;;;;;5072657;28;20040;-63
2023/03/15 05:01:03;;;;;;;3.35;2.00;;;1.00;99.90;;;;;;5068295;28;20504;-64
2023/03/15 05:03:30;;;;;;;2.85;2.00;;;0.90;99.90;;;;;;5069819;28;20138;-64
2023/03/15 05:05:55;;;;;;;3.33;1.80;;;1.00;99.90;;;;;;5065446;28;20058;-63
2023/03/15 05:08:21;;;;;;;2.38;1.67;;;1.00;99.90;;;;;;5072503;28;20198;-63
2023/03/15 05:10:47;;;;;;;2.85;2.08;;;1.00;99.90;;;;;;5069583;28;20043;-64
2023/03/15 05:13:12;;;;;;;3.97;2.63;;;1.00;99.90;;;;;;5072339;28;20044;-64
2023/03/15 05:15:38;;;;;;;2.22;1.80;;;1.10;99.90;;;;;;5066859;28;20044;-64
2023/03/15 05:18:04;;;;;;;3.38;2.08;;;1.10;99.90;;;;;;5072638;28;20036;-64
2023/03/15 05:20:30;;;;;;;3.10;2.38;;;1.10;99.90;;;;;;5065504;28;20049;-64
2023/03/15 05:22:56;;;;;;;3.58;2.40;;;1.10;99.90;;;;;;5073035;28;20044;-65
2023/03/15 05:25:23;;;;;;;3.75;2.42;;;1.10;99.90;;;;;;5071557;28;20040;-65
2023/03/15 05:27:48;;;;;;;4.15;2.58;;;1.10;99.90;;;;;;5073215;28;20044;-65
2023/03/15 05:30:17;;;;;;;3.67;2.65;;;1.20;99.90;;;;;;5068028;28;20043;-65
2023/03/15 05:32:43;;;;;;;2.42;1.90;;;1.20;99.90;;;;;;5072085;28;20120;-63
2023/03/15 05:35:10;;;;;;;4.80;2.92;;;1.20;99.90;;;;;;5070807;28;20101;-66
2023/03/15 05:37:36;;;;;;;3.67;2.42;;;1.10;99.90;;;;;;5071157;28;20059;-64
2023/03/15 05:40:06;;;;;;;2.83;1.83;;;1.10;99.90;;;;;;5067665;28;20408;-66
2023/03/15 05:42:33;;;;;;;1.92;1.70;;;1.00;99.90;;;;;;5074311;28;20052;-65
2023/03/15 05:44:58;;;;;;;3.03;1.92;;;0.80;99.90;;;;;;5068276;28;20047;-64
2023/03/15 05:47:24;;;;;;;2.78;1.80;;;0.80;99.90;;;;;;5070725;28;20055;-63
2023/03/15 05:49:51;;;;;;;2.50;1.85;;;0.80;99.90;;;;;;5067850;28;20127;-66
2023/03/15 05:52:16;;;;;;;3.13;1.90;;;0.80;99.90;;;;;;5069574;28;20040;-64
2023/03/15 05:54:42;;;;;;;3.20;2.17;;;0.80;99.90;;;;;;5073904;28;20075;-65
2023/03/15 05:57:08;;;;;;;5.63;1.92;;;0.80;99.90;;;;;;5071507;28;20048;-65
2023/03/15 05:59:33;;;;;;;6.63;2.42;;;0.90;99.90;;;;;;5070037;28;20032;-65
2023/03/15 06:01:59;;;;;;;6.03;2.55;;;0.90;99.90;;;;;;5067862;28;20032;-65
2023/03/15 06:04:25;;;;;;;9.68;4.25;;;1.00;99.90;;;;;;5068002;28;20056;-61
2023/03/15 06:06:51;;;;;;;4.88;2.92;;;1.10;99.90;;;;;;5069524;28;20127;-66
2023/03/15 06:09:17;;;;;;;5.10;2.70;;;1.10;99.90;;;;;;5069419;28;20067;-65
2023/03/15 06:11:42;;;;;;;5.38;2.60;;;1.10;99.90;;;;;;5069376;28;20678;-64
2023/03/15 06:14:08;;;;;;;9.05;3.53;;;1.10;99.90;;;;;;5071465;28;20036;-64
2023/03/15 06:16:34;;;;;;;7.82;3.05;;;1.20;99.90;;;;;;5067540;28;20557;-64
2023/03/15 06:18:59;;;;;;;9.77;3.30;;;1.30;99.90;;;;;;5072210;28;20060;-65
2023/03/15 06:21:25;;;;;;;6.53;2.60;;;1.30;99.90;;;;;;5066876;28;20135;-64
2023/03/15 06:23:51;;;;;;;5.43;2.95;;;1.30;99.90;;;;;;5073394;28;20086;-63
2023/03/15 06:26:18;;;;;;;9.13;3.10;;;1.30;99.90;;;;;;5068528;28;20047;-64
2023/03/15 06:28:44;;;;;;;11.18;3.83;;;1.40;99.90;;;;;;5075353;28;20036;-64
2023/03/15 06:31:11;;;;;;;6.35;2.67;;;1.40;99.90;;;;;;5067897;28;20043;-63
2023/03/15 06:33:37;;;;;;;9.63;3.38;;;1.30;99.90;;;;;;5071279;28;20040;-63
2023/03/15 06:36:03;;;;;;;5.30;3.03;;;1.30;99.90;;;;;;5070724;28;20418;-65
2023/03/15 06:38:30;;;;;;;7.32;3.42;;;1.30;99.90;;;;;;5072859;28;20056;-65
2023/03/15 06:40:57;;;;;;;9.77;3.97;;;1.20;99.90;;;;;;5064935;28;20040;-65
2023/03/15 06:43:24;;;;;;;17.50;3.10;;;1.30;99.90;;;;;;5067285;28;20066;-64
2023/03/15 06:45:50;;;;;;;8.43;2.97;;;1.30;99.90;;;;;;5066614;28;20045;-65
2023/03/15 06:48:16;;;;;;;6.50;3.35;;;1.30;99.90;;;;;;5071456;28;20040;-63
2023/03/15 06:50:42;;;;;;;16.10;3.80;;;1.10;99.90;;;;;;5070278;28;20087;-65
2023/03/15 06:53:07;;;;;;;5.15;3.65;;;1.10;99.90;;;;;;5071508;28;20501;-63
2023/03/15 06:55:33;;;;;;;9.85;3.65;;;1.10;99.90;;;;;;5069320;28;20470;-64
2023/03/15 06:57:59;;;;;;;16.30;4.32;;;1.30;99.90;;;;;;5066893;28;20037;-65
2023/03/15 07:00:25;;;;;;;8.57;3.75;;;1.30;99.90;;;;;;5067857;28;20036;-64
2023/03/15 07:02:51;;;;;;;7.82;3.42;;;1.30;99.90;;;;;;5071017;28;20101;-63
2023/03/15 07:05:16;;;;;;;11.73;3.58;;;1.40;99.90;;;;;;5066653;28;20044;-64
2023/03/15 07:07:42;;;;;;;8.75;3.70;;;1.40;99.90;;;;;;5070506;28;20037;-64
2023/03/15 07:10:08;;;;;;;11.88;3.65;;;1.50;99.90;;;;;;5066618;28;20037;-63
2023/03/15 07:12:34;;;;;;;7.45;3.28;;;1.70;99.90;;;;;;5065996;28;20402;-63
2023/03/15 07:14:59;;;;;;;6.55;3.65;;;1.80;99.90;;;;;;5063063;28;20483;-64
2023/03/15 07:17:25;;;;;;;8.35;3.88;;;2.00;99.90;;;;;;5064929;28;20493;-64
2023/03/15 07:19:51;;;;;;;5.93;3.40;;;2.00;99.90;;;;;;5066170;28;20044;-61
2023/03/15 07:22:17;;;;;;;9.80;4.20;;;1.90;99.90;;;;;;5064658;28;20033;-64
2023/03/15 07:24:42;;;;;;;10.63;3.55;;;1.80;99.90;;;;;;5066734;28;20037;-64
2023/03/15 07:27:11;;;;;;;11.57;3.85;;;1.90;99.90;;;;;;5065010;28;20046;-63
2023/03/15 07:29:37;;;;;;;9.90;3.55;;;1.80;99.90;;;;;;5065794;28;20464;-64
2023/03/15 07:32:03;;;;;;;8.05;3.30;;;1.90;99.90;;;;;;5065529;28;20036;-63
2023/03/15 07:34:28;;;;;;;8.27;2.88;;;2.50;99.90;;;;;;5069224;28;20129;-64
2023/03/15 07:36:54;;;;;;;7.90;2.60;;;3.00;99.90;;;;;;5068588;28;20139;-65
2023/03/15 07:39:20;;;;;;;5.45;2.58;;;3.30;99.90;;;;;;5074768;28;20494;-65
2023/03/15 07:41:45;;;;;;;10.13;3.53;;;3.40;99.90;;;;;;5071381;28;20845;-65
2023/03/15 07:44:11;;;;;;;5.72;2.38;;;3.50;99.90;;;;;;5074316;28;20415;-63
2023/03/15 07:46:37;;;;;;;14.15;3.78;;;3.50;99.90;;;;;;5071198;28;20040;-64
2023/03/15 07:49:03;;;;;;;5.28;2.45;;;3.20;99.90;;;;;;5068145;28;20109;-64
2023/03/15 07:51:29;;;;;;;8.30;2.80;;;3.60;99.90;;;;;;5070828;28;20055;-63
2023/03/15 07:53:54;;;;;;;8.70;2.38;;;3.40;99.90;;;;;;5076334;28;20040;-64
2023/03/15 07:56:20;;;;;;;6.57;2.78;;;3.60;99.90;;;;;;5069674;28;20036;-64
2023/03/15 07:58:46;;;;;;;7.18;2.45;;;3.90;99.90;;;;;;5076749;28;20193;-64
2023/03/15 08:01:11;;;;;;;5.93;2.58;;;4.00;99.90;;;;;;5069617;28;20090;-65
2023/03/15 08:03:37;;;;;;;13.80;3.25;;;4.10;99.90;;;;;;5074623;28;20036;-64
2023/03/15 08:06:02;;;;;;;8.07;2.78;;;3.90;99.90;;;;;;5072215;28;20047;-65
2023/03/15 08:08:28;;;;;;;6.07;2.47;;;3.40;99.90;;;;;;5073459;28;20139;-65
2023/03/15 08:10:54;;;;;;;7.40;2.42;;;4.00;99.90;;;;;;5073566;28;20094;-64
2023/03/15 08:13:20;;;;;;;8.65;2.42;;;5.00;99.90;;;;;;5069947;28;20040;-65
2023/03/15 08:15:46;;;;;;;8.20;2.65;;;5.10;99.90;;;;;;5070597;28;20055;-65
2023/03/15 08:18:12;;;;;;;10.45;2.60;;;4.60;99.90;;;;;;5071175;28;20041;-64
2023/03/15 08:20:38;;;;;;;5.15;2.50;;;4.20;99.90;;;;;;5070024;28;20116;-64
2023/03/15 08:23:03;;;;;;;7.85;2.78;;;4.20;99.90;;;;;;5073923;28;20039;-65
2023/03/15 08:25:29;;;;;;;5.32;2.75;;;4.20;99.90;;;;;;5070695;28;20055;-65
2023/03/15 08:27:55;;;;;;;3.75;2.33;;;3.70;99.90;;;;;;5075117;28;20419;-65
2023/03/15 08:30:22;;;;;;;7.55;2.67;;;3.90;99.90;;;;;;5068512;28;20039;-64
2023/03/15 08:32:49;;;;;;;7.40;2.00;;;4.00;99.90;;;;;;5073641;28;20036;-66
2023/03/15 08:35:17;;;;;;;6.80;2.80;;;3.90;99.90;;;;;;5072613;28;20381;-63
2023/03/15 08:37:47;;;;;;;3.83;2.13;;;3.60;99.90;;;;;;5074052;28;20047;-63
2023/03/15 08:40:14;;;;;;;9.52;3.15;;;3.50;99.90;;;;;;5071193;28;20240;-61
2023/03/15 08:42:40;;;;;;;9.90;2.42;;;3.70;99.90;;;;;;5072567;28;20360;-64
2023/03/15 08:45:07;;;;;;;6.72;2.40;;;3.50;99.90;;;;;;5072256;28;20052;-66
2023/03/15 08:47:36;;;;;;;8.30;2.88;;;3.20;99.90;;;;;;5072623;28;20412;-64
2023/03/15 08:50:04;;;;;;;15.32;2.90;;;3.40;99.90;;;;;;5073857;28;20047;-65
2023/03/15 08:52:31;;;;;;;10.02;2.65;;;3.50;99.90;;;;;;5074598;28;20703;-63
2023/03/15 08:54:56;;;;;;;9.52;2.60;;;3.40;99.90;;;;;;5071692;28;20059;-65
2023/03/15 08:57:25;;;;;;;12.60;2.60;;;3.40;99.90;;;;;;5074437;28;20059;-64
2023/03/15 08:59:51;;;;;;;9.32;2.70;;;3.50;99.90;;;;;;5069831;28;20039;-64
2023/03/15 09:02:17;;;;;;;7.47;2.63;;;3.60;99.90;;;;;;5071222;28;20036;-65
2023/03/15 09:04:43;;;;;;;6.90;2.65;;;3.70;99.90;;;;;;5069630;28;20037;-66
2023/03/15 09:07:11;;;;;;;7.07;2.65;;;3.30;99.90;;;;;;5070441;28;20186;-66
2023/03/15 09:09:37;;;;;;;6.90;2.63;;;3.30;99.90;;;;;;5075096;28;20055;-65
2023/03/15 09:12:03;;;;;;;4.95;2.35;;;3.50;99.90;;;;;;5070953;28;20400;-64
2023/03/15 09:14:28;;;;;;;10.32;2.63;;;3.30;99.90;;;;;;5074892;28;20190;-65
2023/03/15 09:16:54;;;;;;;6.00;2.45;;;3.60;99.90;;;;;;5069853;28;20032;-65
2023/03/15 09:19:20;;;;;;;9.07;2.30;;;4.00;99.90;;;;;;5077006;28;20578;-65
2023/03/15 09:21:46;;;;;;;5.30;2.38;;;4.40;99.90;;;;;;5068506;28;20044;-64
2023/03/15 09:24:11;;;;;;;8.60;2.30;;;4.60;99.90;;;;;;5065925;28;20496;-65
2023/03/15 09:26:37;;;;;;;7.53;2.72;;;4.60;99.90;;;;;;5062916;28;20521;-61
2023/03/15 09:29:03;;;;;;;5.53;1.98;;;4.40;99.90;;;;;;5066362;28;20036;-63
2023/03/15 09:31:30;;;;;;;7.10;2.60;;;4.40;99.90;;;;;;5065570;28;20048;-65
2023/03/15 09:33:57;;;;;;;13.02;3.63;;;4.40;99.90;;;;;;5069158;28;20039;-65
2023/03/15 09:36:23;;;;;;;7.90;2.58;;;4.30;99.90;;;;;;5059444;28;20728;-65
2023/03/15 09:38:48;;;;;;;6.57;2.33;;;4.30;99.90;;;;;;5069544;28;20033;-64
2023/03/15 09:41:39;;;;;;;10.38;2.40;;;4.00;99.90;;;;;;5030968;28;20435;-64
2023/03/15 09:44:15;;;;;;;7.88;2.33;;;3.90;99.90;;;;;;5065298;28;20032;-66
2023/03/15 09:47:03;;;;;;;8.02;2.65;;;4.10;99.90;;;;;;5065801;28;20044;-63
2023/03/15 09:49:36;;;;;;;11.98;2.33;;;4.70;99.90;;;;;;5063402;28;20601;-64
2023/03/15 09:52:23;;;;;;;11.32;2.53;;;4.40;99.90;;;;;;5060574;28;20047;-64
2023/03/15 09:55:01;;;;;;;8.27;2.40;;;4.30;99.90;;;;;;5067112;28;20033;-66
2023/03/15 09:57:40;;;;;;;7.88;2.42;;;4.50;99.90;;;;;;5065277;28;20056;-65
2023/03/15 10:00:11;;;;;;;8.30;2.20;;;4.70;99.90;;;;;;5062989;28;20058;-65
2023/03/15 10:02:42;;;;;;;7.10;2.25;;;4.50;99.90;;;;;;5065986;28;20086;-65
2023/03/15 10:05:19;;;;;;;7.85;2.40;;;4.60;99.90;;;;;;5065938;28;20423;-65
2023/03/15 10:07:45;;;;;;;6.47;2.35;;;4.90;99.90;;;;;;5066662;28;20055;-64
2023/03/15 10:10:23;;;;;;;8.23;2.22;;;4.40;99.90;;;;;;5066119;28;20040;-66
2023/03/15 10:13:16;;;;;;;10.70;2.45;;;4.10;99.90;;;;;;5066699;28;20033;-64
2023/03/15 10:16:01;;;;;;;14.82;2.38;;;4.00;99.90;;;;;;5049592;28;20040;-65
2023/03/15 10:18:37;;;;;;;10.93;2.03;;;4.00;99.90;;;;;;5066770;28;20684;-65
2023/03/15 10:21:10;;;;;;;5.95;1.80;;;4.10;99.90;;;;;;5062143;28;20048;-65
2023/03/15 10:23:47;;;;;;;19.48;2.75;;;4.10;99.90;;;;;;5066932;28;20121;-64
2023/03/15 10:26:15;;;;;;;9.18;2.70;;;3.90;99.90;;;;;;5062630;28;20417;-65
2023/03/15 10:28:43;;;;;;;6.97;1.92;;;3.80;99.90;;;;;;5071425;28;20773;-65
2023/03/15 10:31:13;;;;;;;8.10;3.65;;;3.70;99.90;;;;;;5059143;28;20136;-65
2023/03/15 10:33:40;;;;;;;10.00;2.20;;;3.80;99.90;;;;;;5067373;28;20036;-64
2023/03/15 10:36:21;;;;;;;8.18;2.17;;;4.10;99.90;;;;;;5061894;28;20055;-65
2023/03/15 10:38:49;;;;;;;10.68;2.40;;;4.10;99.90;;;;;;5069281;28;20043;-64
2023/03/15 10:41:42;;;;;;;9.50;2.20;;;3.80;99.90;;;;;;5059642;28;20048;-62
2023/03/15 10:44:16;;;;;;;9.38;2.10;;;3.70;99.90;;;;;;5071312;28;20040;-65
2023/03/15 10:46:57;;;;;;;9.45;2.20;;;3.80;99.90;;;;;;5066488;28;20048;-64
2023/03/15 10:49:34;;;;;;;9.10;2.60;;;4.20;99.90;;;;;;5071483;28;20895;-63
2023/03/15 10:52:00;;;;;;;12.07;2.20;;;4.40;99.90;;;;;;5065666;28;20392;-63
2023/03/15 10:54:26;;;;;;;7.00;2.15;;;4.50;99.90;;;;;;5065793;28;20047;-65
2023/03/15 10:57:12;;;;;;;10.82;2.20;;;4.90;99.90;;;;;;5066140;28;20042;-62
2023/03/15 11:00:11;;;;;;;8.18;2.25;;;4.60;99.90;;;;;;5066856;28;20066;-65
2023/03/15 11:02:37;;;;;;;10.70;2.42;;;4.90;99.90;;;;;;5061313;28;20485;-65
2023/03/15 11:05:03;;;;;;;13.63;2.38;;;4.70;99.90;;;;;;5064005;28;20044;-64
2023/03/15 11:07:33;;;;;;;9.50;2.65;;;4.70;99.90;;;;;;5067064;28;20412;-63
2023/03/15 11:10:00;;;;;;;9.30;2.38;;;4.60;99.90;;;;;;5065489;28;20504;-63
2023/03/15 11:12:28;;;;;;;7.90;2.20;;;4.40;99.90;;;;;;5073493;28;20818;-63
2023/03/15 11:15:03;;;;;;;10.13;1.80;;;4.50;99.90;;;;;;5068234;28;20052;-62
2023/03/15 11:17:33;;;;;;;5.25;1.52;;;4.50;99.90;;;;;;5070053;28;20050;-64
2023/03/15 11:20:11;;;;;;;8.00;1.77;;;4.50;99.90;;;;;;5064925;28;20504;-64
2023/03/15 11:22:38;;;;;;;7.78;1.80;;;4.60;99.90;;;;;;5070806;28;20060;-61
2023/03/15 11:25:05;;;;;;;11.27;1.98;;;4.50;99.90;;;;;;5064884;28;21864;-63
2023/03/15 11:27:30;;;;;;;7.82;1.90;;;4.50;99.90;;;;;;5066635;28;20127;-60
2023/03/15 11:29:58;;;;;;;7.82;1.67;;;4.20;99.90;;;;;;5064396;28;20156;-61
2023/03/15 11:32:28;;;;;;;9.95;1.70;;;3.90;99.90;;;;;;5065742;28;20043;-59
2023/03/15 11:35:03;;;;;;;6.18;1.50;;;3.80;99.90;;;;;;5065364;28;20040;-60
2023/03/15 11:37:47;;;;;;;12.10;1.57;;;3.80;99.90;;;;;;5063996;28;20044;-62
2023/03/15 11:40:40;;;;;;;8.55;1.73;;;3.90;99.90;;;;;;5065658;28;20036;-63
2023/03/15 11:43:18;;;;;;;7.38;1.60;;;4.10;99.90;;;;;;5068107;28;20036;-61
2023/03/15 11:45:47;;;;;;;4.57;1.25;;;4.30;99.90;;;;;;5059591;28;20033;-62
2023/03/15 11:48:23;;;;;;;9.65;1.73;;;4.70;99.90;;;;;;5066211;28;20075;-61
2023/03/15 11:50:53;;;;;;;6.35;1.65;;;4.90;99.90;;;;;;5060531;28;20039;-58
2023/03/15 11:53:19;;;;;;;10.50;1.88;;;5.00;99.90;;;;;;5066730;28;20040;-59
2023/03/15 11:55:53;;;;;;;5.72;1.65;;;5.30;99.90;;;;;;5062786;28;20120;-62
2023/03/15 11:58:29;;;;;;;15.95;2.30;;;5.00;99.80;;;;;;5067170;28;20037;-60
2023/03/15 12:01:01;;;;;;;6.40;1.70;;;5.10;99.90;;;;;;5061120;28;20037;-63
2023/03/15 12:03:37;;;;;;;8.93;1.50;;;4.90;99.90;;;;;;5068584;28;20046;-63
2023/03/15 12:06:05;;;;;;;8.90;1.77;;;4.80;99.90;;;;;;5064104;28;20053;-62
2023/03/15 12:08:42;;;;;;;10.05;1.90;;;4.80;99.90;;;;;;5069496;28;20111;-60
2023/03/15 12:11:12;;;;;;;;;;;4.90;99.90;;;;;;5066386;28;20112;-63
2023/03/15 12:13:49;;;;;;;10.27;1.65;;;4.90;99.90;;;;;;5073727;28;19916;-62
2023/03/15 12:16:18;;;;;;;11.98;1.73;;;5.10;99.90;;;;;;5066221;28;20083;-59
2023/03/15 12:18:44;;;;;;;8.75;1.65;;;4.90;99.90;;;;;;5076574;28;20116;-61
2023/03/15 12:21:24;;;;;;;10.18;1.92;;;5.00;99.90;;;;;;5071215;28;20116;-63
2023/03/15 12:24:07;;;;;;;7.47;1.65;;;5.00;99.90;;;;;;5079389;28;20039;-58
2023/03/15 12:26:35;;;;;;;6.72;1.40;;;5.10;99.90;;;;;;5063779;28;20047;-58
2023/03/15 12:29:06;;;;;;;9.52;1.88;;;5.10;99.70;;;;;;5075922;28;20055;-61
2023/03/15 12:31:47;;;;;;;14.18;1.38;;;5.20;99.90;;;;;;5069250;28;20146;-62
2023/03/15 12:34:21;;;;;;;9.13;1.42;;;5.40;99.90;;;;;;5071908;28;21657;-62
2023/03/15 12:36:50;;;;;;;7.00;1.33;;;5.50;99.90;;;;;;5072149;28;20087;-61
2023/03/15 12:39:16;;;;;;;11.75;1.50;;;5.80;99.90;;;;;;5077498;28;20128;-62
2023/03/15 12:41:45;;;;;;;8.63;2.08;;;5.30;98.50;;;;;;5071420;28;20124;-61
2023/03/15 12:44:22;;;;;;;10.05;1.20;;;5.40;99.00;;;;;;5076623;28;20071;-61
2023/03/15 12:46:48;;;;;;;5.10;1.60;;;5.20;97.80;;;;;;5071429;28;20040;-61
2023/03/15 12:49:27;;;;;;;9.75;2.10;;;5.00;98.90;;;;;;5069432;28;20055;-62
2023/03/15 12:52:00;;;;;;;6.07;1.40;;;4.90;98.80;;;;;;5065595;28;20036;-61
2023/03/15 12:54:37;;;;;;;10.45;0.90;;;4.90;99.90;;;;;;5070074;28;20040;-61
2023/03/15 12:57:04;;;;;;;13.52;1.85;;;5.10;99.90;;;;;;5072368;28;20532;-63
2023/03/15 12:59:47;;;;;;;7.22;1.23;;;5.20;99.40;;;;;;5074823;28;20072;-61
2023/03/15 13:02:37;;;;;;;11.48;1.73;;;5.20;98.00;;;;;;5064893;28;20167;-63